Time;durP1;ratioP1;P1;durP2;ratioP2;P2;SDS_P1;SDS_P2;PMS_P1;PMS_P2;Temp;Humidity;BMP_temperature;BMP_pressure;BME280_temperature;BME280_humidity;BME280_pressure;Samples;Min_cycle;Max_cycle;Signal;HPM_P1;HPM_P2
2021/12/13 00:02:29;;;;;;;5.40;2.53;;;21.30;79.30;;;;;;5065311;28;20020;-73
2021/12/13 00:05:25;;;;;;;8.90;3.10;;;21.30;79.50;;;;;;5064998;28;20040;-73
2021/12/13 00:08:00;;;;;;;10.35;3.20;;;21.20;79.60;;;;;;5068442;28;20429;-74
2021/12/13 00:10:34;;;;;;;;;;;21.20;79.50;;;;;;5070348;28;20025;-73
2021/12/13 00:13:08;;;;;;;12.18;3.35;;;21.20;79.50;;;;;;5068346;28;19916;-73
2021/12/13 00:15:43;;;;;;;13.35;3.47;;;21.20;80.10;;;;;;5067263;28;20076;-74
2021/12/13 00:18:17;;;;;;;14.30;3.70;;;21.10;79.60;;;;;;5068472;28;20023;-73
2021/12/13 00:20:49;;;;;;;9.50;3.20;;;21.10;79.60;;;;;;5066713;28;20125;-74
2021/12/13 00:23:36;;;;;;;9.05;3.58;;;21.10;79.80;;;;;;5069279;28;20044;-74
2021/12/13 00:26:04;;;;;;;16.13;4.53;;;21.10;79.80;;;;;;5069082;28;20021;-74
2021/12/13 00:28:41;;;;;;;13.27;4.00;;;21.10;80.00;;;;;;5064971;28;20024;-75
2021/12/13 00:31:13;;;;;;;12.88;4.32;;;21.10;80.20;;;;;;5068395;28;20083;-75
2021/12/13 00:34:04;;;;;;;8.48;3.70;;;21.10;80.20;;;;;;5067926;28;20858;-74
2021/12/13 00:37:05;;;;;;;16.10;3.95;;;21.10;80.60;;;;;;5067017;28;20016;-73
2021/12/13 00:39:53;;;;;;;13.98;4.45;;;21.10;80.70;;;;;;5068167;28;20071;-73
2021/12/13 00:42:23;;;;;;;12.75;5.32;;;21.00;81.20;;;;;;5065758;28;20032;-74
2021/12/13 00:45:02;;;;;;;8.07;4.07;;;21.10;81.40;;;;;;5068387;28;20024;-74
2021/12/13 00:47:31;;;;;;;11.43;3.58;;;21.00;81.40;;;;;;5067001;28;20459;-73
2021/12/13 00:50:28;;;;;;;10.95;3.72;;;21.00;81.60;;;;;;5067649;28;20115;-73
2021/12/13 00:52:55;;;;;;;13.88;4.35;;;21.00;81.80;;;;;;5064862;28;20044;-73
2021/12/13 00:55:27;;;;;;;10.63;3.72;;;21.00;81.90;;;;;;5069184;28;20020;-73
2021/12/13 00:58:18;;;;;;;12.60;4.05;;;21.00;82.00;;;;;;5068068;28;20016;-74
2021/12/13 01:01:08;;;;;;;18.13;3.65;;;20.90;82.10;;;;;;5066463;28;20016;-73
2021/12/13 01:03:37;;;;;;;11.02;3.40;;;20.90;82.30;;;;;;5065638;28;20032;-73
2021/12/13 01:06:28;;;;;;;14.20;3.30;;;20.90;82.20;;;;;;5067827;28;20027;-73
2021/12/13 01:09:44;;;;;;;16.00;3.22;;;20.90;82.40;;;;;;5067262;28;20063;-73
2021/12/13 01:12:15;;;;;;;5.32;3.38;;;20.90;82.40;;;;;;5028788;28;20039;-73
2021/12/13 01:14:57;;;;;;;14.68;5.07;;;20.90;82.40;;;;;;5066525;28;20028;-73
2021/12/13 01:17:45;;;;;;;13.57;2.92;;;20.90;82.20;;;;;;5068391;28;20120;-74
2021/12/13 01:20:24;;;;;;;5.47;3.50;;;20.80;82.20;;;;;;5066555;28;20073;-74
2021/12/13 01:23:03;;;;;;;13.82;4.47;;;20.80;82.30;;;;;;5065509;28;20117;-74
2021/12/13 01:28:39;;;;;;;6.78;2.58;;;20.80;82.30;;;;;;5067522;28;20076;-74
2021/12/13 01:31:12;;;;;;;9.73;3.72;;;20.80;82.20;;;;;;5066680;28;20052;-74
2021/12/13 01:33:43;;;;;;;10.70;3.85;;;20.80;82.30;;;;;;5065457;28;20040;-74
2021/12/13 01:36:14;;;;;;;10.45;3.08;;;20.80;82.50;;;;;;5068835;28;20429;-74
2021/12/13 01:38:47;;;;;;;12.57;3.50;;;20.80;82.60;;;;;;5066384;28;20024;-74
2021/12/13 01:41:20;;;;;;;10.45;4.03;;;20.70;82.40;;;;;;5067459;28;20076;-73
2021/12/13 01:43:57;;;;;;;13.45;3.33;;;20.70;82.70;;;;;;5066231;28;20020;-73
2021/12/13 01:46:24;;;;;;;9.15;3.83;;;20.70;82.60;;;;;;5063307;28;20479;-73
2021/12/13 01:48:53;;;;;;;9.68;2.80;;;20.70;82.70;;;;;;5066583;28;20109;-74
2021/12/13 01:51:26;;;;;;;9.50;3.17;;;20.70;82.80;;;;;;5068279;28;20020;-72
2021/12/13 01:54:00;;;;;;;12.38;2.78;;;20.70;82.80;;;;;;5067544;28;20055;-73
2021/12/13 01:59:27;;;;;;;10.43;3.28;;;20.70;83.10;;;;;;5066954;28;20021;-73
2021/12/13 02:01:58;;;;;;;8.65;3.80;;;20.70;83.20;;;;;;5063869;28;20047;-73
2021/12/13 02:04:26;;;;;;;12.60;4.63;;;20.70;83.10;;;;;;5062471;28;20822;-72
2021/12/13 02:07:01;;;;;;;7.70;3.25;;;20.70;83.10;;;;;;5066482;28;20036;-74
2021/12/13 02:09:39;;;;;;;10.23;3.53;;;20.70;83.00;;;;;;5065464;28;20025;-74
2021/12/13 02:12:12;;;;;;;6.95;2.60;;;20.70;83.10;;;;;;5069918;28;20059;-73
2021/12/13 02:14:48;;;;;;;13.45;2.97;;;20.70;82.90;;;;;;5065290;28;20020;-73
2021/12/13 02:17:22;;;;;;;12.43;3.30;;;20.70;83.00;;;;;;5066257;28;20420;-76
2021/12/13 02:20:03;;;;;;;12.05;3.10;;;20.60;82.80;;;;;;5063365;28;20101;-73
2021/12/13 02:22:48;;;;;;;12.23;3.00;;;20.60;82.90;;;;;;5064582;28;20468;-73
2021/12/13 02:25:17;;;;;;;14.10;3.00;;;20.60;83.10;;;;;;5065692;28;20054;-74
2021/12/13 02:27:49;;;;;;;8.55;2.88;;;20.60;83.20;;;;;;5067022;28;20017;-75
2021/12/13 02:30:24;;;;;;;9.38;2.88;;;20.60;83.30;;;;;;5067076;28;20124;-76
2021/12/13 02:32:51;;;;;;;;;;;20.60;83.30;;;;;;5064241;28;20070;-76
2021/12/13 02:35:19;;;;;;;7.10;2.97;;;20.50;83.40;;;;;;5064448;28;19913;-75
2021/12/13 02:37:46;;;;;;;7.57;3.40;;;20.50;83.60;;;;;;5068935;28;20539;-76
2021/12/13 02:40:18;;;;;;;11.32;3.95;;;20.50;83.80;;;;;;5065132;28;20023;-76
2021/12/13 02:42:45;;;;;;;8.15;3.80;;;20.50;83.70;;;;;;5065929;28;20013;-75
2021/12/13 02:45:32;;;;;;;30.00;7.00;;;20.40;83.70;;;;;;5063335;28;20024;-75
2021/12/13 02:48:21;;;;;;;15.25;4.10;;;20.40;83.70;;;;;;5063324;28;20025;-75
2021/12/13 02:51:24;;;;;;;14.65;3.17;;;20.50;83.70;;;;;;5057383;28;20049;-74
2021/12/13 02:53:56;;;;;;;14.27;3.15;;;20.50;83.70;;;;;;5041650;28;20052;-73
2021/12/13 02:56:28;;;;;;;23.90;6.10;;;20.40;83.70;;;;;;5065990;28;20024;-73
2021/12/13 02:58:57;;;;;;;26.33;13.07;;;20.40;83.90;;;;;;5069574;28;20021;-74
2021/12/13 03:01:34;;;;;;;26.52;15.00;;;20.40;84.20;;;;;;5068075;28;20510;-75
2021/12/13 03:04:07;;;;;;;13.90;3.90;;;20.50;84.80;;;;;;5068508;28;20067;-74
2021/12/13 03:06:38;;;;;;;7.38;3.10;;;20.50;84.40;;;;;;5070784;28;20016;-73
2021/12/13 03:09:12;;;;;;;6.53;2.92;;;20.50;84.20;;;;;;5067391;28;20024;-73
2021/12/13 03:11:39;;;;;;;11.95;4.13;;;20.40;84.20;;;;;;5067041;28;20029;-74
2021/12/13 03:14:16;;;;;;;13.35;2.78;;;20.40;84.20;;;;;;5069852;28;20024;-72
2021/12/13 03:16:52;;;;;;;10.00;2.75;;;20.40;84.30;;;;;;5067460;28;20028;-75
2021/12/13 03:19:40;;;;;;;11.43;3.03;;;20.40;84.50;;;;;;5080199;28;20506;-74
2021/12/13 03:22:57;;;;;;;18.05;4.15;;;20.40;84.90;;;;;;5070050;28;20111;-72
2021/12/13 03:25:41;;;;;;;;;;;20.40;85.00;;;;;;5027351;28;20032;-74
2021/12/13 03:28:31;;;;;;;12.82;3.00;;;20.40;85.10;;;;;;5025256;28;19913;-73
2021/12/13 03:31:12;;;;;;;13.00;3.38;;;20.40;85.10;;;;;;5058699;28;20036;-73
2021/12/13 03:33:51;;;;;;;17.08;3.30;;;20.40;85.10;;;;;;5069099;28;20043;-73
2021/12/13 03:36:24;;;;;;;12.25;3.17;;;20.30;85.20;;;;;;5068081;28;20111;-74
2021/12/13 03:38:58;;;;;;;7.70;3.10;;;20.30;85.30;;;;;;5068836;28;20375;-74
2021/12/13 03:41:26;;;;;;;11.43;3.20;;;20.30;85.40;;;;;;5066070;28;20075;-74
2021/12/13 03:44:07;;;;;;;8.30;3.05;;;20.30;85.50;;;;;;5068903;28;20376;-75
2021/12/13 03:46:36;;;;;;;6.50;2.80;;;20.30;85.40;;;;;;5070759;28;20550;-74
2021/12/13 03:49:06;;;;;;;8.15;3.00;;;20.30;85.50;;;;;;5067632;28;20025;-75
2021/12/13 03:51:35;;;;;;;9.82;3.25;;;20.30;85.50;;;;;;5084121;28;20025;-75
2021/12/13 03:54:05;;;;;;;17.63;2.90;;;20.30;85.50;;;;;;5067655;28;20028;-74
2021/12/13 03:56:39;;;;;;;21.88;11.30;;;20.30;85.90;;;;;;5066995;28;20507;-73
2021/12/13 03:59:10;;;;;;;159.40;124.60;;;20.30;86.00;;;;;;5069655;28;20391;-76
2021/12/13 04:01:58;;;;;;;33.40;23.50;;;20.30;85.60;;;;;;5068512;28;20209;-75
2021/12/13 04:04:42;;;;;;;8.07;3.75;;;20.40;85.50;;;;;;5065042;28;20024;-75
2021/12/13 04:07:15;;;;;;;5.05;3.15;;;20.30;85.20;;;;;;5068378;28;20060;-75
2021/12/13 04:09:47;;;;;;;7.50;3.17;;;20.30;85.20;;;;;;5066404;28;20063;-76
2021/12/13 04:12:16;;;;;;;8.05;2.63;;;20.30;85.20;;;;;;5071285;28;20420;-74
2021/12/13 04:15:17;;;;;;;17.90;3.97;;;20.30;85.20;;;;;;5066005;28;20141;-75
2021/12/13 04:18:12;;;;;;;9.27;3.05;;;20.30;85.30;;;;;;5068546;28;20012;-75
2021/12/13 04:20:40;;;;;;;10.60;3.15;;;20.30;85.30;;;;;;5068299;28;20025;-74
2021/12/13 04:23:20;;;;;;;12.70;4.07;;;20.30;85.20;;;;;;5067809;28;20017;-76
2021/12/13 04:25:50;;;;;;;11.90;3.53;;;20.30;85.30;;;;;;5066859;28;20029;-76
2021/12/13 04:28:25;;;;;;;12.07;4.32;;;20.30;85.40;;;;;;5060895;28;20627;-75
2021/12/13 04:30:57;;;;;;;12.65;4.22;;;20.30;85.50;;;;;;5068523;28;20044;-74
2021/12/13 04:33:26;;;;;;;17.52;4.32;;;20.30;85.70;;;;;;5065406;28;20376;-76
2021/12/13 04:36:16;;;;;;;15.05;3.88;;;20.40;85.90;;;;;;5066604;28;20078;-73
2021/12/13 04:38:53;;;;;;;16.58;4.70;;;20.40;86.20;;;;;;5068960;28;20024;-74
2021/12/13 04:41:54;;;;;;;15.20;3.72;;;20.50;86.10;;;;;;5075137;28;20020;-75
2021/12/13 04:44:38;;;;;;;11.85;3.05;;;20.60;86.40;;;;;;5091951;28;20150;-76
2021/12/13 04:47:12;;;;;;;10.55;3.75;;;20.60;85.90;;;;;;5067450;28;20071;-72
2021/12/13 04:49:54;;;;;;;9.55;3.47;;;20.70;85.70;;;;;;5067824;28;20028;-76
2021/12/13 04:52:21;;;;;;;12.93;3.58;;;20.60;85.40;;;;;;5069592;28;20026;-75
2021/12/13 04:54:52;;;;;;;6.57;3.55;;;20.70;85.30;;;;;;5066823;28;20067;-75
2021/12/13 04:57:20;;;;;;;11.65;3.28;;;20.70;85.30;;;;;;5065557;28;20396;-74
2021/12/13 05:00:07;;;;;;;13.45;3.20;;;20.70;85.40;;;;;;5066505;28;20032;-75
2021/12/13 05:02:34;;;;;;;6.80;2.40;;;20.70;85.40;;;;;;5066839;28;20055;-76
2021/12/13 05:05:05;;;;;;;11.88;3.97;;;20.70;85.30;;;;;;5068025;28;20024;-74
2021/12/13 05:07:32;;;;;;;10.93;2.80;;;20.70;85.30;;;;;;5066797;28;20035;-75
2021/12/13 05:10:00;;;;;;;23.20;3.97;;;20.70;85.20;;;;;;5067193;28;20024;-74
2021/12/13 05:12:28;;;;;;;14.52;4.00;;;20.70;85.20;;;;;;5065155;28;20033;-74
2021/12/13 05:15:11;;;;;;;7.13;2.70;;;20.80;85.70;;;;;;5064475;28;20090;-75
2021/12/13 05:17:44;;;;;;;10.32;2.83;;;20.80;85.80;;;;;;5066690;28;20028;-74
2021/12/13 05:20:26;;;;;;;12.15;3.30;;;20.80;85.90;;;;;;5068402;28;20069;-75
2021/12/13 05:23:19;;;;;;;8.85;3.45;;;20.80;85.80;;;;;;5066176;28;20024;-74
2021/12/13 05:25:56;;;;;;;8.27;3.42;;;20.80;85.60;;;;;;5067313;28;20162;-73
2021/12/13 05:28:44;;;;;;;5.45;2.80;;;20.80;85.40;;;;;;5066314;28;20016;-74
2021/12/13 05:31:21;;;;;;;4.35;2.25;;;20.80;85.10;;;;;;5068628;28;20040;-74
2021/12/13 05:33:52;;;;;;;8.00;3.72;;;20.90;85.30;;;;;;5066317;28;20037;-74
2021/12/13 05:36:26;;;;;;;6.10;2.95;;;20.80;85.10;;;;;;5065302;28;20012;-75
2021/12/13 05:39:07;;;;;;;12.75;3.15;;;20.90;85.20;;;;;;5062693;28;20031;-76
2021/12/13 05:41:33;;;;;;;9.88;2.53;;;20.90;85.10;;;;;;5063069;28;20024;-74
2021/12/13 05:44:05;;;;;;;11.90;3.58;;;20.90;85.10;;;;;;5066047;28;20136;-74
2021/12/13 05:46:46;;;;;;;12.13;3.50;;;21.00;85.00;;;;;;5079540;28;20066;-75
2021/12/13 05:49:33;;;;;;;12.27;3.80;;;21.10;84.50;;;;;;5066814;28;20027;-74
2021/12/13 05:52:24;;;;;;;15.73;6.03;;;21.10;83.60;;;;;;5066590;28;20039;-75
2021/12/13 05:54:56;;;;;;;36.72;9.93;;;21.20;81.60;;;;;;5057600;28;20398;-77
2021/12/13 05:57:25;;;;;;;40.47;10.55;;;21.20;80.50;;;;;;5063760;28;20153;-76
2021/12/13 05:59:54;;;;;;;35.97;10.55;;;21.20;80.30;;;;;;5063766;28;20067;-74
2021/12/13 06:02:48;;;;;;;25.00;10.75;;;21.20;79.90;;;;;;5062915;28;20027;-74
2021/12/13 06:05:17;;;;;;;24.20;9.45;;;21.20;79.60;;;;;;5065929;28;20402;-76
2021/12/13 06:07:56;;;;;;;30.30;10.15;;;21.30;80.00;;;;;;5063942;28;20026;-73
2021/12/13 06:10:31;;;;;;;37.03;11.40;;;21.30;80.00;;;;;;5064520;28;20020;-76
2021/12/13 06:13:01;;;;;;;32.80;9.95;;;21.30;79.70;;;;;;5066435;28;20036;-76
2021/12/13 06:15:36;;;;;;;25.55;8.80;;;21.30;79.60;;;;;;5065981;28;20036;-73
2021/12/13 06:18:05;;;;;;;32.63;9.77;;;21.30;79.40;;;;;;5065554;28;20441;-75
2021/12/13 06:20:39;;;;;;;32.00;10.57;;;21.30;79.00;;;;;;5066198;28;20428;-74
2021/12/13 06:23:20;;;;;;;40.73;13.47;;;21.30;78.90;;;;;;5066978;28;20024;-73
2021/12/13 06:25:53;;;;;;;33.35;9.85;;;21.30;79.00;;;;;;5065386;28;20782;-73
2021/12/13 06:28:41;;;;;;;27.42;10.60;;;21.30;78.70;;;;;;5067620;28;20399;-74
2021/12/13 06:31:19;;;;;;;19.10;8.00;;;21.30;79.50;;;;;;5066338;28;20503;-74
2021/12/13 06:33:56;;;;;;;30.85;9.98;;;21.40;79.70;;;;;;5065929;28;20491;-74
2021/12/13 06:36:40;;;;;;;28.48;9.85;;;21.50;79.20;;;;;;5071918;28;20070;-74
2021/12/13 06:39:21;;;;;;;27.02;8.40;;;21.50;79.30;;;;;;5071660;28;20044;-75
2021/12/13 06:42:13;;;;;;;30.90;13.70;;;21.60;79.30;;;;;;5067768;28;20021;-75
2021/12/13 06:44:46;;;;;;;25.90;8.27;;;21.60;78.80;;;;;;5082800;28;20027;-75
2021/12/13 06:47:20;;;;;;;22.98;8.50;;;21.70;78.80;;;;;;5070684;28;20491;-75
2021/12/13 06:49:53;;;;;;;25.05;7.45;;;21.80;78.80;;;;;;5068610;28;20043;-76
2021/12/13 06:52:26;;;;;;;23.23;6.88;;;21.80;78.80;;;;;;5071105;28;20094;-74
2021/12/13 06:54:59;;;;;;;18.52;6.88;;;21.90;78.90;;;;;;5066830;28;20507;-76
2021/12/13 06:57:39;;;;;;;18.13;6.25;;;22.00;78.80;;;;;;5069813;28;20028;-74
2021/12/13 07:00:15;;;;;;;22.08;7.72;;;22.10;78.50;;;;;;5069508;28;20426;-74
2021/12/13 07:02:45;;;;;;;13.07;4.70;;;22.20;78.30;;;;;;5068701;28;20381;-75
2021/12/13 07:05:18;;;;;;;4.53;1.73;;;22.20;78.20;;;;;;5070168;28;20021;-75
2021/12/13 07:07:57;;;;;;;7.10;2.05;;;22.30;77.60;;;;;;5070364;28;20032;-75
2021/12/13 07:10:28;;;;;;;5.65;2.00;;;22.40;76.50;;;;;;5084376;28;20104;-75
2021/12/13 07:12:58;;;;;;;7.78;2.65;;;22.50;75.90;;;;;;5068802;28;20128;-76
2021/12/13 07:15:35;;;;;;;5.40;2.20;;;22.50;75.40;;;;;;5069251;28;20083;-75
2021/12/13 07:18:14;;;;;;;6.65;1.92;;;22.70;75.40;;;;;;5066444;28;20087;-75
2021/12/13 07:20:55;;;;;;;5.28;2.78;;;22.70;74.50;;;;;;5067686;28;20020;-76
2021/12/13 07:23:22;;;;;;;7.65;2.33;;;22.80;73.50;;;;;;5068666;28;20099;-76
2021/12/13 07:25:51;;;;;;;6.80;1.88;;;22.90;72.60;;;;;;5066857;28;20531;-76
2021/12/13 07:28:36;;;;;;;6.45;2.22;;;23.00;72.60;;;;;;5067424;28;20110;-76
2021/12/13 07:31:05;;;;;;;5.68;1.83;;;23.10;72.80;;;;;;5067520;28;20131;-76
2021/12/13 07:33:44;;;;;;;5.70;2.80;;;23.20;72.70;;;;;;5068951;28;20530;-75
2021/12/13 07:36:24;;;;;;;7.53;2.33;;;23.20;72.80;;;;;;5070080;28;20027;-75
2021/12/13 07:39:00;;;;;;;7.38;2.13;;;23.20;73.30;;;;;;5066704;28;20464;-75
2021/12/13 07:41:40;;;;;;;9.85;2.67;;;23.30;72.80;;;;;;5067803;28;20028;-76
2021/12/13 07:44:07;;;;;;;7.18;2.13;;;23.30;71.90;;;;;;5067873;28;20021;-75
2021/12/13 07:46:34;;;;;;;10.88;2.30;;;23.40;71.40;;;;;;5067303;28;20017;-75
2021/12/13 07:49:05;;;;;;;8.07;2.20;;;23.40;71.20;;;;;;5069365;28;20040;-75
2021/12/13 07:51:39;;;;;;;4.97;2.13;;;23.50;70.90;;;;;;5067738;28;20459;-75
2021/12/13 07:54:15;;;;;;;7.20;4.05;;;23.60;70.70;;;;;;5067957;28;20036;-75
2021/12/13 07:56:53;;;;;;;10.57;3.97;;;23.60;70.30;;;;;;5068247;28;20028;-76
2021/12/13 07:59:36;;;;;;;9.00;3.95;;;23.70;70.70;;;;;;5068750;28;20016;-76
2021/12/13 08:02:19;;;;;;;10.23;3.83;;;23.70;70.20;;;;;;5067600;28;20020;-75
2021/12/13 08:04:51;;;;;;;15.10;4.47;;;23.70;70.50;;;;;;5068743;28;20830;-76
2021/12/13 08:07:42;;;;;;;13.32;4.35;;;23.70;70.40;;;;;;5068706;28;20024;-75
2021/12/13 08:10:33;;;;;;;17.67;4.95;;;23.70;70.40;;;;;;5057236;28;20071;-76
2021/12/13 08:13:17;;;;;;;13.55;4.38;;;23.60;70.50;;;;;;5063926;28;20074;-75
2021/12/13 08:16:08;;;;;;;12.38;4.03;;;23.60;70.40;;;;;;5066735;28;20035;-75
2021/12/13 08:18:39;;;;;;;13.40;4.28;;;23.60;69.90;;;;;;5061357;28;20039;-76
2021/12/13 08:21:26;;;;;;;13.05;3.47;;;23.50;69.60;;;;;;5074155;28;20044;-74
2021/12/13 08:24:00;;;;;;;7.50;3.30;;;23.40;70.20;;;;;;5069138;28;20033;-75
2021/12/13 08:26:34;;;;;;;12.05;3.42;;;23.40;70.30;;;;;;5067569;28;20021;-74
2021/12/13 08:29:04;;;;;;;14.25;3.90;;;23.40;70.60;;;;;;5070874;28;20024;-74
2021/12/13 08:31:35;;;;;;;16.98;4.47;;;23.40;70.80;;;;;;5069270;28;20108;-74
2021/12/13 08:34:07;;;;;;;7.43;4.32;;;23.40;70.50;;;;;;5067416;28;20123;-75
2021/12/13 08:36:40;;;;;;;10.82;5.20;;;23.40;70.60;;;;;;5068727;28;20019;-75
2021/12/13 08:39:14;;;;;;;14.43;4.38;;;23.40;70.30;;;;;;5067731;28;20008;-75
2021/12/13 08:42:00;;;;;;;13.07;3.43;;;23.40;70.50;;;;;;5069229;28;20035;-74
2021/12/13 08:44:35;;;;;;;6.72;2.30;;;23.40;70.70;;;;;;5065896;28;20386;-74
2021/12/13 08:47:13;;;;;;;13.10;2.80;;;23.50;70.70;;;;;;5067377;28;20033;-74
2021/12/13 08:49:47;;;;;;;7.28;2.45;;;23.60;70.30;;;;;;5066069;28;20622;-75
2021/12/13 08:52:14;;;;;;;4.97;1.92;;;23.70;69.80;;;;;;5070006;28;20111;-75
2021/12/13 08:54:51;;;;;;;6.25;2.63;;;23.70;69.50;;;;;;5069426;28;20024;-75
2021/12/13 08:57:39;;;;;;;4.55;1.90;;;23.70;69.00;;;;;;5067485;28;20020;-76
2021/12/13 09:00:48;;;;;;;10.10;2.50;;;23.80;68.90;;;;;;5068377;28;20025;-75
2021/12/13 09:04:05;;;;;;;4.85;2.10;;;23.80;68.70;;;;;;5067498;28;20040;-75
2021/12/13 09:06:34;;;;;;;8.02;2.00;;;23.80;69.30;;;;;;5060057;28;20158;-76
2021/12/13 09:09:17;;;;;;;5.95;2.42;;;23.70;69.20;;;;;;5067218;28;20405;-75
2021/12/13 09:12:23;;;;;;;11.30;3.08;;;23.70;69.30;;;;;;5067672;28;20028;-75
2021/12/13 09:15:35;;;;;;;5.18;2.25;;;23.70;69.00;;;;;;5062533;28;20032;-76
2021/12/13 09:18:41;;;;;;;8.77;2.15;;;23.70;69.30;;;;;;5066974;28;20024;-75
2021/12/13 09:21:47;;;;;;;2.60;1.38;;;23.70;69.60;;;;;;5067867;28;20125;-76
2021/12/13 09:24:56;;;;;;;5.38;1.73;;;23.80;69.30;;;;;;5067896;28;20051;-76
2021/12/13 09:27:43;;;;;;;6.40;1.95;;;23.80;69.70;;;;;;5079333;28;20386;-76
2021/12/13 09:30:12;;;;;;;3.67;1.67;;;23.80;69.80;;;;;;5066115;28;20074;-76
2021/12/13 09:33:18;;;;;;;6.18;1.67;;;23.80;69.80;;;;;;5068785;28;20069;-77
2021/12/13 09:36:30;;;;;;;4.15;1.80;;;23.90;69.70;;;;;;5068524;28;20051;-76
2021/12/13 09:39:42;;;;;;;3.17;1.73;;;23.90;69.70;;;;;;5068908;28;20055;-76
2021/12/13 09:42:48;;;;;;;5.78;1.40;;;23.90;69.50;;;;;;5069732;28;20047;-76
2021/12/13 09:45:54;;;;;;;4.10;1.50;;;24.00;70.10;;;;;;5068323;28;20045;-75
2021/12/13 09:48:20;;;;;;;;;;;24.00;69.20;;;;;;5067115;28;20098;-77
2021/12/13 09:51:26;;;;;;;5.80;1.55;;;24.00;69.50;;;;;;5068859;28;20363;-75
2021/12/13 09:54:32;;;;;;;6.72;1.70;;;24.10;69.70;;;;;;5066819;28;20128;-77
2021/12/13 09:57:18;;;;;;;;;;;24.20;70.10;;;;;;5068211;28;20012;-74
2021/12/13 10:00:24;;;;;;;3.33;1.75;;;24.20;69.70;;;;;;5067893;28;19916;-75
2021/12/13 10:03:10;;;;;;;;;;;24.30;69.50;;;;;;5066979;28;20032;-76
2021/12/13 10:06:16;;;;;;;6.55;2.28;;;24.40;69.30;;;;;;5066212;28;19912;-75
2021/12/13 10:09:06;;;;;;;4.05;1.92;;;24.40;68.70;;;;;;5063918;28;20024;-76
2021/12/13 10:12:20;;;;;;;5.32;1.77;;;24.40;68.80;;;;;;5066937;28;20016;-76
2021/12/13 10:15:29;;;;;;;6.05;2.10;;;24.40;69.00;;;;;;5067062;28;20040;-74
2021/12/13 10:18:35;;;;;;;6.57;2.15;;;24.40;69.20;;;;;;5067634;28;20074;-74
2021/12/13 10:21:27;;;;;;;7.35;1.95;;;24.40;69.50;;;;;;5065529;28;20021;-76
2021/12/13 10:24:39;;;;;;;7.03;2.25;;;24.50;69.70;;;;;;5063886;28;21509;-76
2021/12/13 10:27:45;;;;;;;4.07;1.80;;;24.40;69.90;;;;;;5066364;28;20029;-77
2021/12/13 10:30:35;;;;;;;;;;;24.50;70.40;;;;;;5066400;28;20051;-76
2021/12/13 10:33:24;;;;;;;5.47;1.58;;;24.60;70.50;;;;;;5060728;28;19927;-76
2021/12/13 10:35:53;;;;;;;5.38;1.95;;;24.80;69.70;;;;;;5062399;28;20115;-77
2021/12/13 10:38:39;;;;;;;2.35;1.05;;;24.90;68.30;;;;;;5071258;28;20491;-77
2021/12/13 10:41:16;;;;;;;4.45;1.60;;;25.10;68.40;;;;;;5072839;28;20020;-76
2021/12/13 10:43:47;;;;;;;9.95;1.60;;;25.20;68.10;;;;;;5070299;28;20028;-78
2021/12/13 10:46:25;;;;;;;7.65;1.95;;;25.40;68.00;;;;;;5071001;28;20514;-76
2021/12/13 10:48:56;;;;;;;7.78;2.50;;;25.50;68.30;;;;;;5069807;28;20588;-76
2021/12/13 10:51:41;;;;;;;4.95;2.67;;;25.60;68.50;;;;;;5075355;28;20047;-77
2021/12/13 10:54:16;;;;;;;5.85;2.17;;;25.70;67.80;;;;;;5071308;28;20032;-79
2021/12/13 10:56:47;;;;;;;;;;;25.70;67.60;;;;;;5070625;28;20472;-76
2021/12/13 10:59:19;;;;;;;8.25;3.15;;;25.70;67.60;;;;;;5073197;28;19950;-76
2021/12/13 11:01:50;;;;;;;6.43;1.75;;;25.80;67.50;;;;;;5075169;28;20051;-76
2021/12/13 11:04:22;;;;;;;7.82;2.35;;;25.80;67.30;;;;;;5074851;28;20110;-79
2021/12/13 11:06:49;;;;;;;12.93;2.22;;;25.80;67.40;;;;;;5072688;28;20017;-81
2021/12/13 11:12:38;;;;;;;12.88;2.53;;;25.80;66.80;;;;;;4995521;28;20391;-74
2021/12/13 11:15:11;;;;;;;10.27;1.98;;;25.70;67.30;;;;;;4993314;28;20534;-76
2021/12/13 11:17:39;;;;;;;7.85;1.83;;;25.50;67.10;;;;;;4995115;28;20026;-79
